sensor_id;sensor_type;location;lat;lon;timestamp;pressure;altitude;pressure_sealevel;temperature;humidity
47054;BME280;32811;52.382;5.270;2023-11-18T00:02:12;102438.25;;;2.98;100.00
47054;BME280;32811;52.382;5.270;2023-11-18T00:04:43;102444.22;;;2.98;100.00
47054;BME280;32811;52.382;5.270;2023-11-18T00:07:09;102454.00;;;3.05;100.00
47054;BME280;32811;52.382;5.270;2023-11-18T00:09:36;102453.28;;;3.08;100.00
47054;BME280;32811;52.382;5.270;2023-11-18T00:12:03;102442.81;;;3.03;100.00
47054;BME280;32811;52.382;5.270;2023-11-18T00:14:30;102437.38;;;2.97;100.00
47054;BME280;32811;52.382;5.270;2023-11-18T00:16:57;102443.50;;;3.01;100.00
47054;BME280;32811;52.382;5.270;2023-11-18T00:19:25;102439.28;;;3.01;100.00
47054;BME280;32811;52.382;5.270;2023-11-18T00:21:52;102439.72;;;2.94;100.00
47054;BME280;32811;52.382;5.270;2023-11-18T00:24:21;102448.88;;;3.05;100.00
47054;BME280;32811;52.382;5.270;2023-11-18T00:26:48;102451.72;;;3.10;100.00
47054;BME280;32811;52.382;5.270;2023-11-18T00:29:14;102446.63;;;3.10;100.00
47054;BME280;32811;52.382;5.270;2023-11-18T00:31:41;102436.06;;;3.04;100.00
47054;BME280;32811;52.382;5.270;2023-11-18T00:34:08;102447.41;;;3.09;100.00
47054;BME280;32811;52.382;5.270;2023-11-18T00:36:34;102445.91;;;3.12;100.00
47054;BME280;32811;52.382;5.270;2023-11-18T00:39:01;102449.38;;;3.13;100.00
47054;BME280;32811;52.382;5.270;2023-11-18T00:41:30;102443.38;;;3.12;100.00
47054;BME280;32811;52.382;5.270;2023-11-18T00:43:57;102441.50;;;3.10;100.00
47054;BME280;32811;52.382;5.270;2023-11-18T00:46:24;102441.44;;;3.08;100.00
47054;BME280;32811;52.382;5.270;2023-11-18T00:48:50;102432.81;;;3.06;100.00
47054;BME280;32811;52.382;5.270;2023-11-18T00:51:17;102431.13;;;3.07;100.00
47054;BME280;32811;52.382;5.270;2023-11-18T00:53:45;102431.31;;;3.10;100.00
47054;BME280;32811;52.382;5.270;2023-11-18T00:56:15;102433.25;;;3.14;100.00
47054;BME280;32811;52.382;5.270;2023-11-18T00:58:42;102435.91;;;3.16;100.00
47054;BME280;32811;52.382;5.270;2023-11-18T01:01:08;102432.38;;;3.14;100.00
47054;BME280;32811;52.382;5.270;2023-11-18T01:03:36;102449.66;;;3.18;100.00
47054;BME280;32811;52.382;5.270;2023-11-18T01:06:05;102432.81;;;3.06;100.00
47054;BME280;32811;52.382;5.270;2023-11-18T01:08:32;102448.69;;;3.16;100.00
47054;BME280;32811;52.382;5.270;2023-11-18T01:10:59;102435.72;;;3.12;100.00
47054;BME280;32811;52.382;5.270;2023-11-18T01:13:26;102424.91;;;3.17;100.00
47054;BME280;32811;52.382;5.270;2023-11-18T01:15:53;102461.94;;;3.38;100.00
47054;BME280;32811;52.382;5.270;2023-11-18T01:18:19;102449.78;;;3.34;100.00
47054;BME280;32811;52.382;5.270;2023-11-18T01:20:47;102464.66;;;3.41;100.00
47054;BME280;32811;52.382;5.270;2023-11-18T01:23:13;102439.19;;;3.28;100.00
47054;BME280;32811;52.382;5.270;2023-11-18T01:25:40;102471.91;;;3.48;100.00
47054;BME280;32811;52.382;5.270;2023-11-18T01:28:09;102447.69;;;3.42;100.00
47054;BME280;32811;52.382;5.270;2023-11-18T01:30:35;102461.97;;;3.53;100.00
47054;BME280;32811;52.382;5.270;2023-11-18T01:33:02;102441.94;;;3.46;100.00
47054;BME280;32811;52.382;5.270;2023-11-18T01:35:30;102448.56;;;3.57;100.00
47054;BME280;32811;52.382;5.270;2023-11-18T01:37:57;102442.41;;;3.53;100.00
47054;BME280;32811;52.382;5.270;2023-11-18T01:40:24;102461.38;;;3.72;100.00
47054;BME280;32811;52.382;5.270;2023-11-18T01:42:51;102466.47;;;3.72;100.00
47054;BME280;32811;52.382;5.270;2023-11-18T01:45:18;102458.81;;;3.72;100.00
47054;BME280;32811;52.382;5.270;2023-11-18T01:47:47;102439.59;;;3.64;100.00
47054;BME280;32811;52.382;5.270;2023-11-18T01:50:17;102455.38;;;3.71;100.00
47054;BME280;32811;52.382;5.270;2023-11-18T01:52:45;102417.44;;;3.63;100.00
47054;BME280;32811;52.382;5.270;2023-11-18T01:55:13;102445.25;;;3.88;100.00
47054;BME280;32811;52.382;5.270;2023-11-18T01:57:40;102433.44;;;3.75;100.00
47054;BME280;32811;52.382;5.270;2023-11-18T02:00:11;102449.66;;;3.90;100.00
47054;BME280;32811;52.382;5.270;2023-11-18T02:02:38;102444.81;;;3.80;100.00
47054;BME280;32811;52.382;5.270;2023-11-18T02:05:08;102416.28;;;3.58;100.00
47054;BME280;32811;52.382;5.270;2023-11-18T02:07:35;102440.94;;;3.72;100.00
47054;BME280;32811;52.382;5.270;2023-11-18T02:10:04;102453.69;;;3.72;100.00
47054;BME280;32811;52.382;5.270;2023-11-18T02:15:07;102464.53;;;3.83;100.00
47054;BME280;32811;52.382;5.270;2023-11-18T02:17:41;102462.88;;;3.83;100.00
47054;BME280;32811;52.382;5.270;2023-11-18T02:20:10;102459.06;;;3.77;100.00
47054;BME280;32811;52.382;5.270;2023-11-18T02:22:43;102452.84;;;3.71;100.00
47054;BME280;32811;52.382;5.270;2023-11-18T02:25:10;102464.53;;;3.83;100.00
47054;BME280;32811;52.382;5.270;2023-11-18T02:27:41;102453.72;;;3.87;100.00
47054;BME280;32811;52.382;5.270;2023-11-18T02:30:11;102448.34;;;3.82;100.00
47054;BME280;32811;52.382;5.270;2023-11-18T02:33:03;102458.63;;;3.84;100.00
47054;BME280;32811;52.382;5.270;2023-11-18T02:35:38;102456.34;;;3.88;100.00
47054;BME280;32811;52.382;5.270;2023-11-18T02:38:08;102425.72;;;3.73;100.00
47054;BME280;32811;52.382;5.270;2023-11-18T02:40:39;102458.13;;;3.89;100.00
47054;BME280;32811;52.382;5.270;2023-11-18T02:43:11;102447.53;;;3.83;100.00
47054;BME280;32811;52.382;5.270;2023-11-18T02:45:37;102432.06;;;3.80;100.00
47054;BME280;32811;52.382;5.270;2023-11-18T02:48:05;102431.59;;;3.87;100.00
47054;BME280;32811;52.382;5.270;2023-11-18T02:50:33;102411.78;;;3.83;100.00
47054;BME280;32811;52.382;5.270;2023-11-18T02:53:02;102428.53;;;3.93;100.00
47054;BME280;32811;52.382;5.270;2023-11-18T02:55:29;102391.81;;;3.76;100.00
47054;BME280;32811;52.382;5.270;2023-11-18T02:57:56;102426.59;;;3.89;100.00
47054;BME280;32811;52.382;5.270;2023-11-18T03:00:23;102416.13;;;3.84;100.00
47054;BME280;32811;52.382;5.270;2023-11-18T03:02:50;102425.09;;;3.92;100.00
47054;BME280;32811;52.382;5.270;2023-11-18T03:05:19;102423.84;;;3.86;100.00
47054;BME280;32811;52.382;5.270;2023-11-18T03:07:48;102404.22;;;3.70;100.00
47054;BME280;32811;52.382;5.270;2023-11-18T03:10:21;102421.91;;;3.82;100.00
47054;BME280;32811;52.382;5.270;2023-11-18T03:15:15;102421.91;;;3.82;100.00
47054;BME280;32811;52.382;5.270;2023-11-18T03:17:45;102412.59;;;3.82;100.00
47054;BME280;32811;52.382;5.270;2023-11-18T03:20:15;102427.31;;;3.86;100.00
47054;BME280;32811;52.382;5.270;2023-11-18T03:22:44;102419.34;;;3.82;100.00
47054;BME280;32811;52.382;5.270;2023-11-18T03:25:12;102394.53;;;3.79;100.00
47054;BME280;32811;52.382;5.270;2023-11-18T03:27:39;102393.91;;;3.83;100.00
47054;BME280;32811;52.382;5.270;2023-11-18T03:30:09;102401.06;;;3.89;100.00
47054;BME280;32811;52.382;5.270;2023-11-18T03:32:36;102392.31;;;3.85;100.00
47054;BME280;32811;52.382;5.270;2023-11-18T03:35:04;102407.38;;;3.95;100.00
47054;BME280;32811;52.382;5.270;2023-11-18T03:37:39;102392.47;;;3.88;100.00
47054;BME280;32811;52.382;5.270;2023-11-18T03:40:10;102376.38;;;3.89;100.00
47054;BME280;32811;52.382;5.270;2023-11-18T03:42:38;102369.69;;;3.91;100.00
47054;BME280;32811;52.382;5.270;2023-11-18T03:45:06;102375.31;;;4.01;100.00
47054;BME280;32811;52.382;5.270;2023-11-18T03:47:33;102374.59;;;4.03;100.00
47054;BME280;32811;52.382;5.270;2023-11-18T03:50:00;102363.91;;;4.10;100.00
47054;BME280;32811;52.382;5.270;2023-11-18T03:52:27;102343.78;;;4.00;100.00
47054;BME280;32811;52.382;5.270;2023-11-18T03:54:55;102335.31;;;4.01;100.00
47054;BME280;32811;52.382;5.270;2023-11-18T03:57:22;102337.41;;;4.08;100.00
47054;BME280;32811;52.382;5.270;2023-11-18T03:59:49;102343.81;;;4.16;100.00
47054;BME280;32811;52.382;5.270;2023-11-18T04:02:16;102324.81;;;4.11;100.00
47054;BME280;32811;52.382;5.270;2023-11-18T04:04:43;102327.53;;;4.14;100.00
47054;BME280;32811;52.382;5.270;2023-11-18T04:07:10;102303.78;;;4.01;100.00
47054;BME280;32811;52.382;5.270;2023-11-18T04:09:36;102310.97;;;4.08;100.00
47054;BME280;32811;52.382;5.270;2023-11-18T04:12:03;102328.56;;;4.18;100.00
47054;BME280;32811;52.382;5.270;2023-11-18T04:14:31;102337.38;;;4.23;100.00
47054;BME280;32811;52.382;5.270;2023-11-18T04:16:58;102320.09;;;4.19;100.00
47054;BME280;32811;52.382;5.270;2023-11-18T04:19:25;102317.72;;;4.22;100.00
47054;BME280;32811;52.382;5.270;2023-11-18T04:21:52;102305.97;;;4.26;100.00
47054;BME280;32811;52.382;5.270;2023-11-18T04:24:19;102302.53;;;4.25;100.00
47054;BME280;32811;52.382;5.270;2023-11-18T04:26:45;102305.59;;;4.34;100.00
47054;BME280;32811;52.382;5.270;2023-11-18T04:29:14;102286.91;;;4.35;100.00
47054;BME280;32811;52.382;5.270;2023-11-18T04:31:41;102293.94;;;4.40;100.00
47054;BME280;32811;52.382;5.270;2023-11-18T04:34:08;102305.13;;;4.42;100.00
47054;BME280;32811;52.382;5.270;2023-11-18T04:36:34;102300.00;;;4.42;100.00
47054;BME280;32811;52.382;5.270;2023-11-18T04:39:01;102307.84;;;4.45;100.00
47054;BME280;32811;52.382;5.270;2023-11-18T04:41:29;102300.25;;;4.46;100.00
47054;BME280;32811;52.382;5.270;2023-11-18T04:43:58;102298.84;;;4.51;100.00
47054;BME280;32811;52.382;5.270;2023-11-18T04:46:25;102270.91;;;4.40;100.00
47054;BME280;32811;52.382;5.270;2023-11-18T04:48:52;102289.31;;;4.49;100.00
47054;BME280;32811;52.382;5.270;2023-11-18T04:51:21;102275.50;;;4.45;100.00
47054;BME280;32811;52.382;5.270;2023-11-18T04:53:48;102271.88;;;4.42;100.00
47054;BME280;32811;52.382;5.270;2023-11-18T04:56:15;102292.19;;;4.55;100.00
47054;BME280;32811;52.382;5.270;2023-11-18T04:58:46;102281.72;;;4.50;100.00
47054;BME280;32811;52.382;5.270;2023-11-18T05:01:14;102294.81;;;4.56;100.00
47054;BME280;32811;52.382;5.270;2023-11-18T05:03:41;102287.78;;;4.52;100.00
47054;BME280;32811;52.382;5.270;2023-11-18T05:06:08;102274.84;;;4.49;100.00
47054;BME280;32811;52.382;5.270;2023-11-18T05:08:35;102277.97;;;4.60;100.00
47054;BME280;32811;52.382;5.270;2023-11-18T05:11:02;102247.50;;;4.48;100.00
47054;BME280;32811;52.382;5.270;2023-11-18T05:13:31;102243.94;;;4.45;100.00
47054;BME280;32811;52.382;5.270;2023-11-18T05:16:01;102280.53;;;4.60;100.00
47054;BME280;32811;52.382;5.270;2023-11-18T05:18:27;102286.53;;;4.61;100.00
47054;BME280;32811;52.382;5.270;2023-11-18T05:21:00;102258.94;;;4.55;100.00
47054;BME280;32811;52.382;5.270;2023-11-18T05:23:27;102242.25;;;4.45;100.00
47054;BME280;32811;52.382;5.270;2023-11-18T05:25:55;102251.22;;;4.53;100.00
47054;BME280;32811;52.382;5.270;2023-11-18T05:28:22;102267.31;;;4.69;100.00
47054;BME280;32811;52.382;5.270;2023-11-18T05:30:49;102270.44;;;4.63;100.00
47054;BME280;32811;52.382;5.270;2023-11-18T05:33:17;102266.44;;;4.68;100.00
47054;BME280;32811;52.382;5.270;2023-11-18T05:35:45;102264.53;;;4.64;100.00
47054;BME280;32811;52.382;5.270;2023-11-18T05:38:18;102277.31;;;4.64;100.00
47054;BME280;32811;52.382;5.270;2023-11-18T05:40:51;102268.63;;;4.61;100.00
47054;BME280;32811;52.382;5.270;2023-11-18T05:43:28;102254.06;;;4.60;100.00
47054;BME280;32811;52.382;5.270;2023-11-18T05:45:57;102261.19;;;4.65;100.00
47054;BME280;32811;52.382;5.270;2023-11-18T05:48:43;102243.19;;;4.64;100.00
47054;BME280;32811;52.382;5.270;2023-11-18T05:51:11;102233.13;;;4.67;100.00
47054;BME280;32811;52.382;5.270;2023-11-18T05:53:42;102233.91;;;4.66;100.00
47054;BME280;32811;52.382;5.270;2023-11-18T05:56:12;102206.06;;;4.54;100.00
47054;BME280;32811;52.382;5.270;2023-11-18T05:58:39;102203.09;;;4.63;100.00
47054;BME280;32811;52.382;5.270;2023-11-18T06:01:07;102217.31;;;4.57;100.00
47054;BME280;32811;52.382;5.270;2023-11-18T06:03:35;102219.06;;;4.58;100.00
47054;BME280;32811;52.382;5.270;2023-11-18T06:06:07;102204.28;;;4.53;100.00
47054;BME280;32811;52.382;5.270;2023-11-18T06:08:34;102207.81;;;4.55;100.00
47054;BME280;32811;52.382;5.270;2023-11-18T06:11:01;102217.13;;;4.71;100.00
47054;BME280;32811;52.382;5.270;2023-11-18T06:13:49;102204.91;;;4.65;100.00
47054;BME280;32811;52.382;5.270;2023-11-18T06:16:21;102199.56;;;4.61;100.00
47054;BME280;32811;52.382;5.270;2023-11-18T06:18:50;102191.91;;;4.61;100.00
47054;BME280;32811;52.382;5.270;2023-11-18T06:21:21;102189.34;;;4.61;100.00
47054;BME280;32811;52.382;5.270;2023-11-18T06:23:51;102192.03;;;4.64;100.00
47054;BME280;32811;52.382;5.270;2023-11-18T06:26:18;102208.97;;;4.78;100.00
47054;BME280;32811;52.382;5.270;2023-11-18T06:28:46;102206.25;;;4.75;100.00
47054;BME280;32811;52.382;5.270;2023-11-18T06:31:13;102195.00;;;4.71;100.00
47054;BME280;32811;52.382;5.270;2023-11-18T06:33:42;102201.72;;;4.69;100.00
47054;BME280;32811;52.382;5.270;2023-11-18T06:38:45;102205.25;;;4.71;100.00
47054;BME280;32811;52.382;5.270;2023-11-18T06:41:13;102230.31;;;4.78;100.00
47054;BME280;32811;52.382;5.270;2023-11-18T06:43:43;102200.13;;;4.71;100.00
47054;BME280;32811;52.382;5.270;2023-11-18T06:46:33;102203.63;;;4.73;100.00
47054;BME280;32811;52.382;5.270;2023-11-18T06:49:07;102209.84;;;4.78;100.00
47054;BME280;32811;52.382;5.270;2023-11-18T06:51:37;102200.75;;;4.67;100.00
47054;BME280;32811;52.382;5.270;2023-11-18T06:54:05;102213.88;;;4.73;100.00
47054;BME280;32811;52.382;5.270;2023-11-18T06:56:37;102225.13;;;4.77;100.00
47054;BME280;32811;52.382;5.270;2023-11-18T06:59:07;102211.22;;;4.72;100.00
47054;BME280;32811;52.382;5.270;2023-11-18T07:01:34;102214.56;;;4.71;100.00
47054;BME280;32811;52.382;5.270;2023-11-18T07:04:02;102226.94;;;4.79;100.00
47054;BME280;32811;52.382;5.270;2023-11-18T07:06:32;102200.59;;;4.64;100.00
47054;BME280;32811;52.382;5.270;2023-11-18T07:08:58;102201.41;;;4.63;100.00
47054;BME280;32811;52.382;5.270;2023-11-18T07:11:26;102234.47;;;4.76;100.00
47054;BME280;32811;52.382;5.270;2023-11-18T07:13:53;102187.34;;;4.55;100.00
47054;BME280;32811;52.382;5.270;2023-11-18T07:16:24;102229.34;;;4.76;100.00
47054;BME280;32811;52.382;5.270;2023-11-18T07:18:51;102217.22;;;4.72;100.00
47054;BME280;32811;52.382;5.270;2023-11-18T07:21:18;102219.91;;;4.75;100.00
47054;BME280;32811;52.382;5.270;2023-11-18T07:23:45;102213.88;;;4.73;100.00
47054;BME280;32811;52.382;5.270;2023-11-18T07:26:14;102226.88;;;4.78;100.00
47054;BME280;32811;52.382;5.270;2023-11-18T07:28:41;102195.47;;;4.64;100.00
47054;BME280;32811;52.382;5.270;2023-11-18T07:31:10;102198.94;;;4.65;100.00
47054;BME280;32811;52.382;5.270;2023-11-18T07:33:39;102204.56;;;4.75;100.00
47054;BME280;32811;52.382;5.270;2023-11-18T07:36:10;102203.63;;;4.73;100.00
47054;BME280;32811;52.382;5.270;2023-11-18T07:38:39;102214.47;;;4.86;100.00
47054;BME280;32811;52.382;5.270;2023-11-18T07:41:06;102209.22;;;4.83;100.00
47054;BME280;32811;52.382;5.270;2023-11-18T07:43:35;102216.06;;;4.84;100.00
47054;BME280;32811;52.382;5.270;2023-11-18T07:46:07;102200.63;;;4.82;100.00
47054;BME280;32811;52.382;5.270;2023-11-18T07:48:34;102163.28;;;4.68;100.00
47054;BME280;32811;52.382;5.270;2023-11-18T07:51:01;102138.75;;;4.55;100.00
47054;BME280;32811;52.382;5.270;2023-11-18T07:53:28;102174.91;;;4.79;100.00
47054;BME280;32811;52.382;5.270;2023-11-18T07:55:56;102172.44;;;4.81;100.00
47054;BME280;32811;52.382;5.270;2023-11-18T07:58:22;102163.72;;;4.77;100.00
47054;BME280;32811;52.382;5.270;2023-11-18T08:00:49;102173.63;;;4.87;100.00
47054;BME280;32811;52.382;5.270;2023-11-18T08:03:16;102167.38;;;4.82;100.00
47054;BME280;32811;52.382;5.270;2023-11-18T08:05:44;102163.94;;;4.82;100.00
47054;BME280;32811;52.382;5.270;2023-11-18T08:08:14;102145.59;;;4.72;100.00
47054;BME280;32811;52.382;5.270;2023-11-18T08:10:44;102166.16;;;4.92;100.00
47054;BME280;32811;52.382;5.270;2023-11-18T08:13:11;102162.75;;;4.91;100.00
47054;BME280;32811;52.382;5.270;2023-11-18T08:15:41;102156.88;;;4.94;100.00
47054;BME280;32811;52.382;5.270;2023-11-18T08:18:08;102150.09;;;4.94;100.00
47054;BME280;32811;52.382;5.270;2023-11-18T08:20:38;102127.41;;;4.84;100.00
47054;BME280;32811;52.382;5.270;2023-11-18T08:23:05;102135.47;;;4.92;100.00
47054;BME280;32811;52.382;5.270;2023-11-18T08:25:32;102162.75;;;5.09;100.00
47054;BME280;32811;52.382;5.270;2023-11-18T08:28:00;102156.50;;;5.04;100.00
47054;BME280;32811;52.382;5.270;2023-11-18T08:30:37;102143.44;;;4.98;100.00
47054;BME280;32811;52.382;5.270;2023-11-18T08:33:03;102138.38;;;4.99;100.00
47054;BME280;32811;52.382;5.270;2023-11-18T08:35:32;102154.16;;;5.09;100.00
47054;BME280;32811;52.382;5.270;2023-11-18T08:37:58;102144.16;;;5.13;100.00
47054;BME280;32811;52.382;5.270;2023-11-18T08:40:28;102133.91;;;5.13;100.00
47054;BME280;32811;52.382;5.270;2023-11-18T08:42:55;102113.31;;;5.10;100.00
47054;BME280;32811;52.382;5.270;2023-11-18T08:45:25;102117.16;;;5.20;100.00
47054;BME280;32811;52.382;5.270;2023-11-18T08:48:00;102106.34;;;5.26;100.00
47054;BME280;32811;52.382;5.270;2023-11-18T08:50:35;102107.31;;;5.28;100.00
47054;BME280;32811;52.382;5.270;2023-11-18T08:53:02;102096.03;;;5.24;100.00
47054;BME280;32811;52.382;5.270;2023-11-18T08:55:32;102098.31;;;5.36;100.00
47054;BME280;32811;52.382;5.270;2023-11-18T08:58:09;102059.00;;;5.16;100.00
47054;BME280;32811;52.382;5.270;2023-11-18T09:00:51;102085.56;;;5.37;100.00
47054;BME280;32811;52.382;5.270;2023-11-18T09:03:25;102080.38;;;5.36;100.00
47054;BME280;32811;52.382;5.270;2023-11-18T09:06:06;102082.41;;;5.43;100.00
47054;BME280;32811;52.382;5.270;2023-11-18T09:08:45;102049.22;;;5.27;100.00
47054;BME280;32811;52.382;5.270;2023-11-18T09:11:13;102064.75;;;5.49;100.00
47054;BME280;32811;52.382;5.270;2023-11-18T09:13:45;102057.28;;;5.54;100.00
47054;BME280;32811;52.382;5.270;2023-11-18T09:16:15;102029.50;;;5.44;100.00
47054;BME280;32811;52.382;5.270;2023-11-18T09:18:43;102023.84;;;5.51;100.00
47054;BME280;32811;52.382;5.270;2023-11-18T09:21:13;102042.13;;;5.58;100.00
47054;BME280;32811;52.382;5.270;2023-11-18T09:23:45;102022.97;;;5.50;100.00
47054;BME280;32811;52.382;5.270;2023-11-18T09:26:14;102033.97;;;5.67;100.00
47054;BME280;32811;52.382;5.270;2023-11-18T09:28:43;102006.00;;;5.52;100.00
47054;BME280;32811;52.382;5.270;2023-11-18T09:31:12;102015.81;;;5.62;100.00
47054;BME280;32811;52.382;5.270;2023-11-18T09:33:41;102021.16;;;5.67;100.00
47054;BME280;32811;52.382;5.270;2023-11-18T09:36:13;102007.13;;;5.59;100.00
47054;BME280;32811;52.382;5.270;2023-11-18T09:38:40;102017.56;;;5.64;100.00
47054;BME280;32811;52.382;5.270;2023-11-18T09:41:09;102014.19;;;5.65;100.00
47054;BME280;32811;52.382;5.270;2023-11-18T09:43:42;102012.56;;;5.67;100.00
47054;BME280;32811;52.382;5.270;2023-11-18T09:46:10;102012.72;;;5.70;100.00
47054;BME280;32811;52.382;5.270;2023-11-18T09:51:21;102019.28;;;5.63;100.00
47054;BME280;32811;52.382;5.270;2023-11-18T09:53:49;102017.91;;;5.71;100.00
47054;BME280;32811;52.382;5.270;2023-11-18T09:56:23;102016.91;;;5.68;100.00
47054;BME280;32811;52.382;5.270;2023-11-18T10:01:36;102028.03;;;5.68;100.00
47054;BME280;32811;52.382;5.270;2023-11-18T10:04:05;101996.50;;;5.50;100.00
47054;BME280;32811;52.382;5.270;2023-11-18T10:06:37;102010.56;;;5.59;100.00
47054;BME280;32811;52.382;5.270;2023-11-18T10:09:07;102018.53;;;5.66;100.00
47054;BME280;32811;52.382;5.270;2023-11-18T10:11:48;101978.63;;;5.51;100.00
47054;BME280;32811;52.382;5.270;2023-11-18T10:14:16;101982.94;;;5.52;100.00
47054;BME280;32811;52.382;5.270;2023-11-18T10:16:44;101994.53;;;5.64;100.00
47054;BME280;32811;52.382;5.270;2023-11-18T10:19:15;101995.66;;;5.70;100.00
47054;BME280;32811;52.382;5.270;2023-11-18T10:21:44;101970.66;;;5.65;100.00
47054;BME280;32811;52.382;5.270;2023-11-18T10:24:16;101998.63;;;5.79;100.00
47054;BME280;32811;52.382;5.270;2023-11-18T10:26:54;102000.78;;;5.90;100.00
47054;BME280;32811;52.382;5.270;2023-11-18T10:29:25;101992.25;;;5.91;100.00
47054;BME280;32811;52.382;5.270;2023-11-18T10:32:21;101970.44;;;5.79;100.00
47054;BME280;32811;52.382;5.270;2023-11-18T10:34:51;101940.00;;;5.66;100.00
47054;BME280;32811;52.382;5.270;2023-11-18T10:37:18;101945.38;;;5.72;100.00
47054;BME280;32811;52.382;5.270;2023-11-18T10:39:48;101957.63;;;5.79;100.00
47054;BME280;32811;52.382;5.270;2023-11-18T10:42:18;101929.34;;;5.76;100.00
47054;BME280;32811;52.382;5.270;2023-11-18T10:44:54;101925.06;;;5.77;100.00
47054;BME280;32811;52.382;5.270;2023-11-18T10:47:26;101924.06;;;5.73;100.00
47054;BME280;32811;52.382;5.270;2023-11-18T10:49:54;101948.31;;;5.81;100.00
47054;BME280;32811;52.382;5.270;2023-11-18T10:52:23;101942.06;;;5.75;100.00
47054;BME280;32811;52.382;5.270;2023-11-18T10:54:51;101953.53;;;5.83;100.00
47054;BME280;32811;52.382;5.270;2023-11-18T10:57:24;101957.03;;;5.85;100.00
47054;BME280;32811;52.382;5.270;2023-11-18T11:00:02;101948.25;;;5.80;100.00
47054;BME280;32811;52.382;5.270;2023-11-18T11:02:30;101944.22;;;5.85;100.00
47054;BME280;32811;52.382;5.270;2023-11-18T11:05:02;101906.28;;;5.76;100.00
47054;BME280;32811;52.382;5.270;2023-11-18T11:07:32;101886.56;;;5.75;100.00
47054;BME280;32811;52.382;5.270;2023-11-18T11:10:02;101900.84;;;5.90;100.00
47054;BME280;32811;52.382;5.270;2023-11-18T11:12:33;101855.09;;;5.78;100.00
47054;BME280;32811;52.382;5.270;2023-11-18T11:15:26;101860.78;;;5.92;100.00
47054;BME280;32811;52.382;5.270;2023-11-18T11:18:05;101855.81;;;5.95;100.00
47054;BME280;32811;52.382;5.270;2023-11-18T11:20:42;101840.50;;;5.96;100.00
47054;BME280;32811;52.382;5.270;2023-11-18T11:23:20;101819.34;;;6.02;100.00
47054;BME280;32811;52.382;5.270;2023-11-18T11:26:07;101805.78;;;6.05;100.00
47054;BME280;32811;52.382;5.270;2023-11-18T11:28:43;101773.28;;;6.03;100.00
47054;BME280;32811;52.382;5.270;2023-11-18T11:34:06;101790.53;;;6.08;100.00
47054;BME280;32811;52.382;5.270;2023-11-18T11:36:37;101789.69;;;6.09;100.00
47054;BME280;32811;52.382;5.270;2023-11-18T11:39:08;101768.50;;;6.13;100.00
47054;BME280;32811;52.382;5.270;2023-11-18T11:41:46;101758.84;;;6.06;100.00
47054;BME280;32811;52.382;5.270;2023-11-18T11:44:20;101757.22;;;6.08;100.00
47054;BME280;32811;52.382;5.270;2023-11-18T11:46:48;101741.53;;;6.00;100.00
47054;BME280;32811;52.382;5.270;2023-11-18T11:49:21;101731.56;;;6.08;100.00
47054;BME280;32811;52.382;5.270;2023-11-18T11:52:04;101731.69;;;6.11;100.00
47054;BME280;32811;52.382;5.270;2023-11-18T11:54:49;101727.41;;;6.11;100.00
47054;BME280;32811;52.382;5.270;2023-11-18T11:57:22;101725.84;;;6.15;100.00
47054;BME280;32811;52.382;5.270;2023-11-18T12:02:30;101715.78;;;6.19;100.00
47054;BME280;32811;52.382;5.270;2023-11-18T12:04:59;101682.91;;;6.09;100.00
47054;BME280;32811;52.382;5.270;2023-11-18T12:07:32;101702.47;;;6.30;100.00
47054;BME280;32811;52.382;5.270;2023-11-18T12:10:08;101700.81;;;6.32;100.00
47054;BME280;32811;52.382;5.270;2023-11-18T12:12:43;101711.81;;;6.28;100.00
47054;BME280;32811;52.382;5.270;2023-11-18T12:15:09;101724.81;;;6.34;100.00
47054;BME280;32811;52.382;5.270;2023-11-18T12:20:45;101691.56;;;6.35;100.00
47054;BME280;32811;52.382;5.270;2023-11-18T12:23:15;101676.09;;;6.34;100.00
47054;BME280;32811;52.382;5.270;2023-11-18T12:25:43;101643.75;;;6.37;100.00
47054;BME280;32811;52.382;5.270;2023-11-18T12:28:15;101568.41;;;6.34;100.00
47054;BME280;32811;52.382;5.270;2023-11-18T12:30:43;101529.00;;;6.30;100.00
47054;BME280;32811;52.382;5.270;2023-11-18T12:33:19;101539.50;;;6.38;100.00
47054;BME280;32811;52.382;5.270;2023-11-18T12:41:36;101621.91;;;6.49;100.00
47054;BME280;32811;52.382;5.270;2023-11-18T12:44:29;101632.19;;;6.49;100.00
47054;BME280;32811;52.382;5.270;2023-11-18T12:47:02;101584.28;;;6.48;100.00
47054;BME280;32811;52.382;5.270;2023-11-18T12:49:45;101570.78;;;6.53;100.00
47054;BME280;32811;52.382;5.270;2023-11-18T12:52:16;101582.78;;;6.54;100.00
47054;BME280;32811;52.382;5.270;2023-11-18T12:54:46;101599.91;;;6.55;100.00
47054;BME280;32811;52.382;5.270;2023-11-18T12:57:20;101619.66;;;6.58;100.00
47054;BME280;32811;52.382;5.270;2023-11-18T12:59:49;101577.66;;;6.54;100.00
47054;BME280;32811;52.382;5.270;2023-11-18T13:02:16;101562.44;;;6.60;100.00
47054;BME280;32811;52.382;5.270;2023-11-18T13:04:47;101547.03;;;6.59;100.00
47054;BME280;32811;52.382;5.270;2023-11-18T13:07:16;101542.84;;;6.62;100.00
47054;BME280;32811;52.382;5.270;2023-11-18T13:12:24;101544.63;;;6.65;100.00
47054;BME280;32811;52.382;5.270;2023-11-18T13:14:54;101502.97;;;6.45;100.00
47054;BME280;32811;52.382;5.270;2023-11-18T13:17:22;101518.91;;;6.62;100.00
47054;BME280;32811;52.382;5.270;2023-11-18T13:19:49;101518.03;;;6.61;100.00
47054;BME280;32811;52.382;5.270;2023-11-18T13:22:20;101511.13;;;6.59;100.00
47054;BME280;32811;52.382;5.270;2023-11-18T13:25:00;101508.78;;;6.67;100.00
47054;BME280;32811;52.382;5.270;2023-11-18T13:27:27;101509.72;;;6.69;100.00
47054;BME280;32811;52.382;5.270;2023-11-18T13:29:54;101484.78;;;6.64;100.00
47054;BME280;32811;52.382;5.270;2023-11-18T13:32:21;101474.47;;;6.63;100.00
47054;BME280;32811;52.382;5.270;2023-11-18T13:34:55;101477.47;;;6.77;100.00